Terminal Aerodrome Forecast
Issued by NWS Charleston, WV

Current Version | Previous Version | Graphics & Text | Print | Product List | Glossary On
Versions: 1 2 3 4 5 6 7 8 9 10 11 12 13 14 15 16 17 18 19 20 21 22 23 24 25
000
FTUS41 KRLX 231700
TAFBKW
TAF
KBKW 231739Z 2318/2418 24009KT P6SM SCT025 BKN040
     FM232100 27005KT 6SM BR VCTS BKN030CB
     FM240000 25004KT 5SM TSRA BR OVC030CB
     FM240500 00000KT 4SM TSRA BR OVC025CB
     FM240700 00000KT 4SM TSRA BR OVC020CB
     FM240900 00000KT 4SM SHRA BR VCTS OVC010CB
     FM241500 33006KT 5SM SHRA BR VCTS BKN010CB
     FM241700 34007KT P6SM BKN015=

USA.gov is the U.S. government's official web portal to all federal, state and local government web resources and services.